createdAt,value
2018-02-05T00:02:54.675Z,75.20
2018-02-05T00:08:23.644Z,75.00
2018-02-05T00:13:51.829Z,75.00
2018-02-05T00:19:19.969Z,74.90
2018-02-05T00:24:48.122Z,75.00
2018-02-05T00:30:16.329Z,75.00
2018-02-05T00:35:44.519Z,75.10
2018-02-05T00:41:12.706Z,75.20
2018-02-05T00:46:40.865Z,75.30
2018-02-05T00:52:09.032Z,75.30
2018-02-05T00:57:37.240Z,75.40
2018-02-05T01:03:05.456Z,75.60
2018-02-05T01:08:34.682Z,75.90
2018-02-05T01:14:02.902Z,75.90
2018-02-05T01:19:33.080Z,76.00
2018-02-05T01:25:01.272Z,76.10
2018-02-05T01:30:30.430Z,76.20
2018-02-05T01:35:58.609Z,76.10
2018-02-05T01:41:26.764Z,76.20
2018-02-05T01:46:54.933Z,76.20
2018-02-05T01:52:23.090Z,76.30
2018-02-05T01:57:52.025Z,76.30
2018-02-05T02:03:20.938Z,76.30
2018-02-05T02:08:49.102Z,76.30
2018-02-05T02:14:17.258Z,76.30
2018-02-05T02:19:45.414Z,76.30
2018-02-05T02:25:13.575Z,76.30
2018-02-05T02:30:41.752Z,76.30
2018-02-05T02:36:09.985Z,76.20
2018-02-05T02:41:38.916Z,76.30
2018-02-05T02:47:07.100Z,76.30
2018-02-05T02:52:35.511Z,76.90
2018-02-05T02:58:03.687Z,76.30
2018-02-05T03:03:32.855Z,76.20
2018-02-05T03:09:01.030Z,76.20
2018-02-05T03:14:29.210Z,76.20
2018-02-05T03:19:57.360Z,76.10
2018-02-05T03:25:25.520Z,76.20
2018-02-05T03:30:54.464Z,76.20
2018-02-05T03:36:22.627Z,76.20
2018-02-05T03:41:50.793Z,76.20
2018-02-05T03:47:21.906Z,76.30
2018-02-05T03:52:50.313Z,76.30
2018-02-05T03:58:19.340Z,76.10
2018-02-05T04:03:47.498Z,76.10
2018-02-05T04:09:15.753Z,76.00
2018-02-05T04:14:43.918Z,76.00
2018-02-05T04:20:12.861Z,76.00
2018-02-05T04:25:41.041Z,76.00
2018-02-05T04:31:09.260Z,75.90
2018-02-05T04:36:37.485Z,75.90
2018-02-05T04:42:05.651Z,75.90
2018-02-05T04:47:33.813Z,75.90
2018-02-05T04:53:01.974Z,75.90
2018-02-05T04:58:31.030Z,75.70
2018-02-05T05:03:59.515Z,75.70
2018-02-05T05:09:27.821Z,75.70
2018-02-05T05:14:55.970Z,75.60
2018-02-05T05:20:24.893Z,75.60
2018-02-05T05:25:53.996Z,75.60
2018-02-05T05:31:22.182Z,75.50
2018-02-05T05:36:51.123Z,75.50
2018-02-05T05:42:20.036Z,75.50
2018-02-05T05:47:48.193Z,75.40
2018-02-05T05:53:16.341Z,75.40
2018-02-05T05:58:44.804Z,75.50
2018-02-05T06:04:12.955Z,75.50
2018-02-05T06:09:41.097Z,75.50
2018-02-05T06:15:09.250Z,76.00
2018-02-05T06:20:37.394Z,75.40
2018-02-05T06:26:06.477Z,75.50
2018-02-05T06:31:34.662Z,75.40
2018-02-05T06:37:02.851Z,75.50
2018-02-05T06:42:31.968Z,75.40
2018-02-05T06:48:00.138Z,75.50
2018-02-05T06:53:46.247Z,75.40
2018-02-05T06:59:14.407Z,75.40
2018-02-05T07:04:43.315Z,75.40
2018-02-05T07:10:11.500Z,75.30
2018-02-05T07:15:39.690Z,75.30
2018-02-05T07:21:08.628Z,75.30
2018-02-05T07:26:37.550Z,75.20
2018-02-05T07:32:05.725Z,75.20
2018-02-05T07:37:33.947Z,75.30
2018-02-05T07:43:02.113Z,75.10
2018-02-05T07:48:31.131Z,74.80
2018-02-05T07:54:00.175Z,74.80
2018-02-05T07:59:28.336Z,74.70
2018-02-05T08:04:56.510Z,74.50
2018-02-05T08:10:24.718Z,74.50
2018-02-05T08:15:54.011Z,74.50
2018-02-05T08:21:22.222Z,74.40
2018-02-05T08:26:51.157Z,74.50
2018-02-05T08:32:20.069Z,74.40
2018-02-05T08:37:48.220Z,74.40
2018-02-05T08:43:17.146Z,74.10
2018-02-05T08:48:45.358Z,74.10
2018-02-05T08:54:13.521Z,74.00
2018-02-05T08:59:41.711Z,73.90
2018-02-05T09:05:09.868Z,73.70
2018-02-05T09:10:38.064Z,73.60
2018-02-05T09:16:07.033Z,73.50
2018-02-05T09:21:35.247Z,73.50
2018-02-05T09:27:03.425Z,73.40
2018-02-05T09:32:31.585Z,73.30
2018-02-05T09:37:59.791Z,73.30
2018-02-05T09:43:28.784Z,73.20
2018-02-05T09:48:56.938Z,73.00
2018-02-05T09:54:25.891Z,72.70
2018-02-05T09:59:54.042Z,72.70
2018-02-05T10:05:22.216Z,72.50
2018-02-05T10:10:51.148Z,72.30
2018-02-05T10:16:20.107Z,72.50
2018-02-05T10:21:48.307Z,72.40
2018-02-05T10:27:17.236Z,72.20
2018-02-05T10:32:45.381Z,72.10
2018-02-05T10:38:14.303Z,71.40
2018-02-05T10:43:42.455Z,71.30
2018-02-05T10:49:10.588Z,71.00
2018-02-05T10:54:38.991Z,71.00
2018-02-05T11:00:07.200Z,71.10
2018-02-05T11:05:36.124Z,70.80
2018-02-05T11:11:05.165Z,70.30
2018-02-05T11:16:33.322Z,70.30
2018-02-05T11:22:01.480Z,70.30
2018-02-05T11:27:29.626Z,70.20
2018-02-05T11:32:58.535Z,70.00
2018-02-05T11:38:26.684Z,70.00
2018-02-05T11:43:55.591Z,69.50
2018-02-05T11:49:23.729Z,69.40
2018-02-05T11:54:51.875Z,69.70
2018-02-05T12:00:20.056Z,69.80
2018-02-05T12:05:48.211Z,69.50
2018-02-05T12:11:17.122Z,69.00
2018-02-05T12:16:45.281Z,68.90
2018-02-05T12:22:13.431Z,69.80
2018-02-05T12:27:41.591Z,69.20
2018-02-05T12:33:10.512Z,70.40
2018-02-05T12:38:38.677Z,69.80
2018-02-05T12:44:06.831Z,69.60
2018-02-05T12:49:34.967Z,68.90
2018-02-05T12:55:03.148Z,68.80
2018-02-05T13:00:34.620Z,68.80
2018-02-05T13:12:12.740Z,68.70
2018-02-05T13:17:41.671Z,69.10
2018-02-05T13:23:10.648Z,69.00
2018-02-05T13:28:38.780Z,68.90
2018-02-05T13:34:06.993Z,68.40
2018-02-05T13:39:35.188Z,68.30
2018-02-05T13:45:03.815Z,68.30
2018-02-05T13:50:31.981Z,68.40
2018-02-05T13:56:00.146Z,68.60
2018-02-05T14:01:29.080Z,68.20
2018-02-05T14:06:58.013Z,65.90
2018-02-05T14:12:26.255Z,65.80
2018-02-05T14:17:54.424Z,64.00
2018-02-05T14:23:22.574Z,63.10
2018-02-05T14:28:51.480Z,64.60
2018-02-05T14:34:19.628Z,64.60
2018-02-05T14:39:47.757Z,64.80
2018-02-05T14:45:16.672Z,66.20
2018-02-05T14:50:44.975Z,66.20
2018-02-05T14:56:13.131Z,67.00
2018-02-05T15:01:42.104Z,67.70
2018-02-05T15:07:10.238Z,67.70
2018-02-05T15:12:38.403Z,67.60
2018-02-05T15:18:06.596Z,67.20
2018-02-05T15:23:34.764Z,67.30
2018-02-05T15:29:03.358Z,67.90
2018-02-05T15:34:31.571Z,68.20
2018-02-05T15:39:59.717Z,68.40
2018-02-05T15:45:28.654Z,68.90
2018-02-05T15:50:57.573Z,68.90
2018-02-05T15:56:25.716Z,68.90
2018-02-05T16:01:54.619Z,68.90
2018-02-05T16:07:22.772Z,68.90
2018-02-05T16:12:51.687Z,69.20
2018-02-05T16:18:19.852Z,69.10
2018-02-05T16:23:47.991Z,69.20
2018-02-05T16:29:24.823Z,69.40
2018-02-05T16:34:54.210Z,69.60
2018-02-05T16:40:22.405Z,69.60
2018-02-05T16:45:54.935Z,70.10
2018-02-05T16:51:27.487Z,69.90
2018-02-05T16:56:56.455Z,70.10
2018-02-05T17:02:24.897Z,70.10
2018-02-05T17:07:53.076Z,70.10
2018-02-05T17:13:21.991Z,70.30
2018-02-05T17:18:50.165Z,70.30
2018-02-05T17:24:18.333Z,70.30
2018-02-05T17:29:46.500Z,70.40
2018-02-05T17:35:14.653Z,70.40
2018-02-05T17:40:42.801Z,70.60
2018-02-05T17:46:11.543Z,70.70
2018-02-05T17:51:40.742Z,71.10
2018-02-05T17:57:09.026Z,70.90
2018-02-05T18:02:37.280Z,70.90
2018-02-05T18:08:05.922Z,71.00
2018-02-05T18:13:34.988Z,71.10
2018-02-05T18:19:03.918Z,71.10
2018-02-05T18:24:32.092Z,71.20
2018-02-05T18:30:00.286Z,71.20
2018-02-05T18:35:29.236Z,71.30
2018-02-05T18:40:58.183Z,71.30
2018-02-05T18:46:26.381Z,71.30
2018-02-05T18:51:55.365Z,72.00
2018-02-05T18:57:23.565Z,71.20
2018-02-05T19:02:51.753Z,71.20
2018-02-05T19:08:20.870Z,71.00
2018-02-05T19:13:49.054Z,71.00
2018-02-05T19:19:17.270Z,71.00
2018-02-05T19:24:46.435Z,71.10
2018-02-05T19:30:14.589Z,71.10
2018-02-05T19:35:42.751Z,71.20
2018-02-05T19:41:10.918Z,71.60
2018-02-05T19:46:39.212Z,71.70
2018-02-05T19:52:07.388Z,71.80
2018-02-05T19:57:36.340Z,71.90
2018-02-05T20:03:04.678Z,71.90
2018-02-05T20:08:33.793Z,71.90
2018-02-05T20:14:02.920Z,72.00
2018-02-05T20:19:31.176Z,71.90
2018-02-05T20:25:00.306Z,72.00
2018-02-05T20:30:30.277Z,71.90
2018-02-05T20:35:59.248Z,71.90
2018-02-05T20:41:27.410Z,71.90
2018-02-05T20:46:57.049Z,72.00
2018-02-05T20:52:25.330Z,72.10
2018-02-05T20:57:53.483Z,72.00
2018-02-05T21:03:21.712Z,72.10
2018-02-05T21:08:50.805Z,72.00
2018-02-05T21:14:18.996Z,72.00
2018-02-05T21:19:47.162Z,72.00
2018-02-05T21:25:15.421Z,71.90
2018-02-05T21:30:44.492Z,72.00
2018-02-05T21:36:18.600Z,71.90
2018-02-05T21:41:46.779Z,71.90
2018-02-05T21:47:15.724Z,71.80
2018-02-05T21:52:48.350Z,71.80
2018-02-05T21:58:17.508Z,71.80
2018-02-05T22:03:45.699Z,71.80
2018-02-05T22:09:15.794Z,71.80
2018-02-05T22:14:44.045Z,71.80
2018-02-05T22:20:12.278Z,71.80
2018-02-05T22:25:40.428Z,71.80
2018-02-05T22:31:09.358Z,71.90
2018-02-05T22:36:39.256Z,71.80
2018-02-05T22:42:07.435Z,71.80
2018-02-05T22:47:35.605Z,71.90
2018-02-05T22:53:03.793Z,71.80
2018-02-05T22:58:33.767Z,71.90
2018-02-05T23:04:01.983Z,72.50
2018-02-05T23:09:30.638Z,71.80
2018-02-05T23:14:59.987Z,71.80
2018-02-05T23:20:28.143Z,71.80
2018-02-05T23:25:56.300Z,71.80
2018-02-05T23:31:24.449Z,71.80
2018-02-05T23:36:52.589Z,71.90
2018-02-05T23:42:20.756Z,71.80
2018-02-05T23:47:48.908Z,71.70
2018-02-05T23:53:17.070Z,71.70
2018-02-05T23:58:45.227Z,71.80
